sensor_id;sensor_type;location;lat;lon;timestamp;temperature;humidity
37910;DHT22;23741;49.446;8.754;2023-06-05T00:00:34;21.50;36.30
37910;DHT22;23741;49.446;8.754;2023-06-05T00:02:36;21.50;36.10
37910;DHT22;23741;49.446;8.754;2023-06-05T00:04:38;21.40;36.00
37910;DHT22;23741;49.446;8.754;2023-06-05T00:06:41;21.40;36.00
37910;DHT22;23741;49.446;8.754;2023-06-05T00:08:44;21.40;36.20
37910;DHT22;23741;49.446;8.754;2023-06-05T00:10:45;21.40;36.20
37910;DHT22;23741;49.446;8.754;2023-06-05T00:12:47;21.40;36.20
37910;DHT22;23741;49.446;8.754;2023-06-05T00:14:49;21.30;36.10
37910;DHT22;23741;49.446;8.754;2023-06-05T00:16:52;21.30;36.10
37910;DHT22;23741;49.446;8.754;2023-06-05T00:18:54;21.30;36.10
37910;DHT22;23741;49.446;8.754;2023-06-05T00:20:56;21.30;36.10
37910;DHT22;23741;49.446;8.754;2023-06-05T00:22:58;21.30;36.30
37910;DHT22;23741;49.446;8.754;2023-06-05T00:24:59;21.30;36.30
37910;DHT22;23741;49.446;8.754;2023-06-05T00:27:01;21.30;36.30
37910;DHT22;23741;49.446;8.754;2023-06-05T00:29:03;21.20;36.40
37910;DHT22;23741;49.446;8.754;2023-06-05T00:31:07;21.20;36.60
37910;DHT22;23741;49.446;8.754;2023-06-05T00:33:09;21.20;36.80
37910;DHT22;23741;49.446;8.754;2023-06-05T00:35:11;21.20;36.50
37910;DHT22;23741;49.446;8.754;2023-06-05T00:37:12;21.20;36.40
37910;DHT22;23741;49.446;8.754;2023-06-05T00:39:18;21.10;36.60
37910;DHT22;23741;49.446;8.754;2023-06-05T00:41:22;21.10;36.50
37910;DHT22;23741;49.446;8.754;2023-06-05T00:43:24;21.10;36.60
37910;DHT22;23741;49.446;8.754;2023-06-05T00:45:26;21.10;36.60
37910;DHT22;23741;49.446;8.754;2023-06-05T00:47:28;21.00;36.70
37910;DHT22;23741;49.446;8.754;2023-06-05T00:49:30;21.00;36.80
37910;DHT22;23741;49.446;8.754;2023-06-05T00:51:32;21.00;36.70
37910;DHT22;23741;49.446;8.754;2023-06-05T00:53:34;21.00;36.60
37910;DHT22;23741;49.446;8.754;2023-06-05T00:55:36;21.00;36.50
37910;DHT22;23741;49.446;8.754;2023-06-05T00:57:38;21.00;36.80
37910;DHT22;23741;49.446;8.754;2023-06-05T00:59:40;21.00;36.80
37910;DHT22;23741;49.446;8.754;2023-06-05T01:01:46;20.90;37.00
37910;DHT22;23741;49.446;8.754;2023-06-05T01:03:49;20.90;37.00
37910;DHT22;23741;49.446;8.754;2023-06-05T01:05:51;20.90;37.10
37910;DHT22;23741;49.446;8.754;2023-06-05T01:07:53;20.90;37.40
37910;DHT22;23741;49.446;8.754;2023-06-05T01:09:55;20.90;37.10
37910;DHT22;23741;49.446;8.754;2023-06-05T01:12:17;20.90;37.20
37910;DHT22;23741;49.446;8.754;2023-06-05T01:14:24;20.80;37.40
37910;DHT22;23741;49.446;8.754;2023-06-05T01:16:29;20.80;37.30
37910;DHT22;23741;49.446;8.754;2023-06-05T01:18:34;20.80;37.30
37910;DHT22;23741;49.446;8.754;2023-06-05T01:20:37;20.80;37.40
37910;DHT22;23741;49.446;8.754;2023-06-05T01:22:38;20.80;37.50
37910;DHT22;23741;49.446;8.754;2023-06-05T01:24:40;20.80;37.50
37910;DHT22;23741;49.446;8.754;2023-06-05T01:26:45;20.70;37.40
37910;DHT22;23741;49.446;8.754;2023-06-05T01:28:53;20.70;37.50
37910;DHT22;23741;49.446;8.754;2023-06-05T01:33:07;20.70;37.70
37910;DHT22;23741;49.446;8.754;2023-06-05T01:35:11;20.70;37.90
37910;DHT22;23741;49.446;8.754;2023-06-05T01:37:19;20.70;37.70
37910;DHT22;23741;49.446;8.754;2023-06-05T01:39:26;20.60;37.80
37910;DHT22;23741;49.446;8.754;2023-06-05T01:41:29;20.60;37.80
37910;DHT22;23741;49.446;8.754;2023-06-05T01:43:31;20.60;37.80
37910;DHT22;23741;49.446;8.754;2023-06-05T01:45:33;20.60;38.10
37910;DHT22;23741;49.446;8.754;2023-06-05T01:47:39;20.70;38.00
37910;DHT22;23741;49.446;8.754;2023-06-05T01:49:42;20.50;38.40
37910;DHT22;23741;49.446;8.754;2023-06-05T01:51:44;20.60;38.40
37910;DHT22;23741;49.446;8.754;2023-06-05T01:53:46;20.50;38.60
37910;DHT22;23741;49.446;8.754;2023-06-05T01:55:50;20.50;38.30
37910;DHT22;23741;49.446;8.754;2023-06-05T01:57:55;20.50;38.30
37910;DHT22;23741;49.446;8.754;2023-06-05T01:59:56;20.50;38.30
37910;DHT22;23741;49.446;8.754;2023-06-05T02:01:58;20.40;38.40
37910;DHT22;23741;49.446;8.754;2023-06-05T02:04:00;20.50;38.40
37910;DHT22;23741;49.446;8.754;2023-06-05T02:06:07;20.40;38.40
37910;DHT22;23741;49.446;8.754;2023-06-05T02:08:09;20.40;38.30
37910;DHT22;23741;49.446;8.754;2023-06-05T02:10:12;20.40;38.30
37910;DHT22;23741;49.446;8.754;2023-06-05T02:12:14;20.30;38.40
37910;DHT22;23741;49.446;8.754;2023-06-05T02:14:16;20.30;38.80
37910;DHT22;23741;49.446;8.754;2023-06-05T02:16:21;20.30;38.90
37910;DHT22;23741;49.446;8.754;2023-06-05T02:18:24;20.30;38.90
37910;DHT22;23741;49.446;8.754;2023-06-05T02:20:27;20.30;38.80
37910;DHT22;23741;49.446;8.754;2023-06-05T02:22:28;20.30;39.00
37910;DHT22;23741;49.446;8.754;2023-06-05T02:24:30;20.20;38.90
37910;DHT22;23741;49.446;8.754;2023-06-05T02:26:32;20.20;38.70
37910;DHT22;23741;49.446;8.754;2023-06-05T02:28:34;20.20;38.90
37910;DHT22;23741;49.446;8.754;2023-06-05T02:30:35;20.20;39.10
37910;DHT22;23741;49.446;8.754;2023-06-05T02:32:39;20.20;39.10
37910;DHT22;23741;49.446;8.754;2023-06-05T02:34:46;20.10;38.80
37910;DHT22;23741;49.446;8.754;2023-06-05T02:36:48;20.10;39.20
37910;DHT22;23741;49.446;8.754;2023-06-05T02:38:51;20.10;39.00
37910;DHT22;23741;49.446;8.754;2023-06-05T02:40:54;20.10;39.00
37910;DHT22;23741;49.446;8.754;2023-06-05T02:42:56;20.10;39.20
37910;DHT22;23741;49.446;8.754;2023-06-05T02:44:58;20.00;39.40
37910;DHT22;23741;49.446;8.754;2023-06-05T02:47:00;20.00;39.50
37910;DHT22;23741;49.446;8.754;2023-06-05T02:49:02;20.00;39.40
37910;DHT22;23741;49.446;8.754;2023-06-05T02:51:04;20.00;39.60
37910;DHT22;23741;49.446;8.754;2023-06-05T02:53:08;20.00;39.30
37910;DHT22;23741;49.446;8.754;2023-06-05T02:55:11;19.90;39.30
37910;DHT22;23741;49.446;8.754;2023-06-05T02:57:14;19.90;39.30
37910;DHT22;23741;49.446;8.754;2023-06-05T02:59:19;19.90;39.40
37910;DHT22;23741;49.446;8.754;2023-06-05T03:01:24;19.90;39.40
37910;DHT22;23741;49.446;8.754;2023-06-05T03:03:30;19.90;39.40
37910;DHT22;23741;49.446;8.754;2023-06-05T03:05:33;19.90;39.70
37910;DHT22;23741;49.446;8.754;2023-06-05T03:07:40;19.80;39.70
37910;DHT22;23741;49.446;8.754;2023-06-05T03:09:42;19.80;39.80
37910;DHT22;23741;49.446;8.754;2023-06-05T03:11:44;19.80;39.80
37910;DHT22;23741;49.446;8.754;2023-06-05T03:13:46;19.80;39.70
37910;DHT22;23741;49.446;8.754;2023-06-05T03:15:48;19.80;39.70
37910;DHT22;23741;49.446;8.754;2023-06-05T03:17:52;19.80;39.40
37910;DHT22;23741;49.446;8.754;2023-06-05T03:19:56;19.80;39.40
37910;DHT22;23741;49.446;8.754;2023-06-05T03:21:58;19.70;39.40
37910;DHT22;23741;49.446;8.754;2023-06-05T03:24:00;19.70;39.40
37910;DHT22;23741;49.446;8.754;2023-06-05T03:26:03;19.70;39.70
37910;DHT22;23741;49.446;8.754;2023-06-05T03:28:05;19.70;39.70
37910;DHT22;23741;49.446;8.754;2023-06-05T03:30:07;19.70;39.70
37910;DHT22;23741;49.446;8.754;2023-06-05T03:32:16;19.70;39.80
37910;DHT22;23741;49.446;8.754;2023-06-05T03:34:19;19.70;39.70
37910;DHT22;23741;49.446;8.754;2023-06-05T03:36:21;19.70;39.80
37910;DHT22;23741;49.446;8.754;2023-06-05T03:38:24;19.70;39.90
37910;DHT22;23741;49.446;8.754;2023-06-05T03:40:27;19.60;40.10
37910;DHT22;23741;49.446;8.754;2023-06-05T03:42:29;19.60;40.00
37910;DHT22;23741;49.446;8.754;2023-06-05T03:44:31;19.60;40.00
37910;DHT22;23741;49.446;8.754;2023-06-05T03:46:33;19.60;40.10
37910;DHT22;23741;49.446;8.754;2023-06-05T03:48:36;19.60;40.00
37910;DHT22;23741;49.446;8.754;2023-06-05T03:50:37;19.60;40.40
37910;DHT22;23741;49.446;8.754;2023-06-05T03:52:41;19.50;40.40
37910;DHT22;23741;49.446;8.754;2023-06-05T03:54:43;19.50;40.40
37910;DHT22;23741;49.446;8.754;2023-06-05T03:56:46;19.60;40.50
37910;DHT22;23741;49.446;8.754;2023-06-05T03:58:53;19.50;40.40
37910;DHT22;23741;49.446;8.754;2023-06-05T04:00:54;19.50;40.40
37910;DHT22;23741;49.446;8.754;2023-06-05T04:02:56;19.50;40.60
37910;DHT22;23741;49.446;8.754;2023-06-05T04:05:00;19.40;40.70
37910;DHT22;23741;49.446;8.754;2023-06-05T04:07:03;19.40;40.90
37910;DHT22;23741;49.446;8.754;2023-06-05T04:09:05;19.40;40.90
37910;DHT22;23741;49.446;8.754;2023-06-05T04:11:15;19.40;40.80
37910;DHT22;23741;49.446;8.754;2023-06-05T04:13:17;19.40;40.50
37910;DHT22;23741;49.446;8.754;2023-06-05T04:15:19;19.40;41.50
37910;DHT22;23741;49.446;8.754;2023-06-05T04:17:21;19.30;40.80
37910;DHT22;23741;49.446;8.754;2023-06-05T04:19:23;19.40;40.90
37910;DHT22;23741;49.446;8.754;2023-06-05T04:21:28;19.30;41.00
37910;DHT22;23741;49.446;8.754;2023-06-05T04:23:31;19.30;40.90
37910;DHT22;23741;49.446;8.754;2023-06-05T04:25:33;19.30;41.10
37910;DHT22;23741;49.446;8.754;2023-06-05T04:27:37;19.30;41.10
37910;DHT22;23741;49.446;8.754;2023-06-05T04:29:39;19.30;41.40
37910;DHT22;23741;49.446;8.754;2023-06-05T04:31:42;19.30;41.30
37910;DHT22;23741;49.446;8.754;2023-06-05T04:33:44;19.30;41.30
37910;DHT22;23741;49.446;8.754;2023-06-05T04:35:46;19.30;41.50
37910;DHT22;23741;49.446;8.754;2023-06-05T04:37:49;19.30;40.90
37910;DHT22;23741;49.446;8.754;2023-06-05T04:39:53;19.20;41.20
37910;DHT22;23741;49.446;8.754;2023-06-05T04:41:56;19.30;41.30
37910;DHT22;23741;49.446;8.754;2023-06-05T04:44:04;19.20;41.30
37910;DHT22;23741;49.446;8.754;2023-06-05T04:46:06;19.30;41.90
37910;DHT22;23741;49.446;8.754;2023-06-05T04:48:08;19.20;41.30
37910;DHT22;23741;49.446;8.754;2023-06-05T04:50:20;19.20;41.90
37910;DHT22;23741;49.446;8.754;2023-06-05T04:52:24;19.20;41.80
37910;DHT22;23741;49.446;8.754;2023-06-05T04:54:26;19.10;41.90
37910;DHT22;23741;49.446;8.754;2023-06-05T04:56:28;19.10;42.00
37910;DHT22;23741;49.446;8.754;2023-06-05T04:58:30;19.10;41.90
37910;DHT22;23741;49.446;8.754;2023-06-05T05:00:32;19.10;42.10
37910;DHT22;23741;49.446;8.754;2023-06-05T05:02:37;19.10;41.60
37910;DHT22;23741;49.446;8.754;2023-06-05T05:04:40;19.10;42.00
37910;DHT22;23741;49.446;8.754;2023-06-05T05:06:42;19.10;41.80
37910;DHT22;23741;49.446;8.754;2023-06-05T05:08:49;19.10;41.90
37910;DHT22;23741;49.446;8.754;2023-06-05T05:10:51;19.10;42.40
37910;DHT22;23741;49.446;8.754;2023-06-05T05:12:52;19.10;42.70
37910;DHT22;23741;49.446;8.754;2023-06-05T05:14:55;19.10;42.10
37910;DHT22;23741;49.446;8.754;2023-06-05T05:16:57;19.10;42.90
37910;DHT22;23741;49.446;8.754;2023-06-05T05:19:02;19.10;42.70
37910;DHT22;23741;49.446;8.754;2023-06-05T05:21:04;19.10;42.50
37910;DHT22;23741;49.446;8.754;2023-06-05T05:23:07;19.10;42.70
37910;DHT22;23741;49.446;8.754;2023-06-05T05:25:10;19.10;42.80
37910;DHT22;23741;49.446;8.754;2023-06-05T05:27:12;19.10;43.00
37910;DHT22;23741;49.446;8.754;2023-06-05T05:29:13;19.10;43.10
37910;DHT22;23741;49.446;8.754;2023-06-05T05:31:15;19.10;43.50
37910;DHT22;23741;49.446;8.754;2023-06-05T05:33:18;19.10;43.50
37910;DHT22;23741;49.446;8.754;2023-06-05T05:35:20;19.10;43.40
37910;DHT22;23741;49.446;8.754;2023-06-05T05:37:21;19.10;43.50
37910;DHT22;23741;49.446;8.754;2023-06-05T05:39:24;19.10;43.50
37910;DHT22;23741;49.446;8.754;2023-06-05T05:41:25;19.10;43.50
37910;DHT22;23741;49.446;8.754;2023-06-05T05:43:28;19.10;43.70
37910;DHT22;23741;49.446;8.754;2023-06-05T05:45:29;19.10;43.70
37910;DHT22;23741;49.446;8.754;2023-06-05T05:47:31;19.20;43.50
37910;DHT22;23741;49.446;8.754;2023-06-05T05:49:33;19.20;43.20
37910;DHT22;23741;49.446;8.754;2023-06-05T05:51:35;19.20;43.70
37910;DHT22;23741;49.446;8.754;2023-06-05T05:53:37;19.20;43.80
37910;DHT22;23741;49.446;8.754;2023-06-05T05:55:38;19.20;43.60
37910;DHT22;23741;49.446;8.754;2023-06-05T05:57:40;19.20;43.50
37910;DHT22;23741;49.446;8.754;2023-06-05T05:59:42;19.20;43.60
37910;DHT22;23741;49.446;8.754;2023-06-05T06:01:46;19.30;43.60
37910;DHT22;23741;49.446;8.754;2023-06-05T06:03:47;19.30;43.70
37910;DHT22;23741;49.446;8.754;2023-06-05T06:05:49;19.30;43.40
37910;DHT22;23741;49.446;8.754;2023-06-05T06:07:51;19.30;43.60
37910;DHT22;23741;49.446;8.754;2023-06-05T06:09:53;19.30;43.80
37910;DHT22;23741;49.446;8.754;2023-06-05T06:11:55;19.30;43.50
37910;DHT22;23741;49.446;8.754;2023-06-05T06:13:58;19.40;43.30
37910;DHT22;23741;49.446;8.754;2023-06-05T06:16:00;19.40;43.40
37910;DHT22;23741;49.446;8.754;2023-06-05T06:18:03;19.40;43.50
37910;DHT22;23741;49.446;8.754;2023-06-05T06:20:06;19.50;43.80
37910;DHT22;23741;49.446;8.754;2023-06-05T06:22:08;19.50;43.50
37910;DHT22;23741;49.446;8.754;2023-06-05T06:24:13;19.50;43.40
37910;DHT22;23741;49.446;8.754;2023-06-05T06:26:17;19.60;43.80
37910;DHT22;23741;49.446;8.754;2023-06-05T06:28:18;19.60;43.60
37910;DHT22;23741;49.446;8.754;2023-06-05T06:30:21;19.60;43.80
37910;DHT22;23741;49.446;8.754;2023-06-05T06:32:23;19.70;43.50
37910;DHT22;23741;49.446;8.754;2023-06-05T06:34:27;19.60;43.30
37910;DHT22;23741;49.446;8.754;2023-06-05T06:36:29;19.70;43.30
37910;DHT22;23741;49.446;8.754;2023-06-05T06:38:31;19.80;43.50
37910;DHT22;23741;49.446;8.754;2023-06-05T06:40:33;19.80;43.70
37910;DHT22;23741;49.446;8.754;2023-06-05T06:42:35;19.80;43.50
37910;DHT22;23741;49.446;8.754;2023-06-05T06:44:57;19.80;43.10
37910;DHT22;23741;49.446;8.754;2023-06-05T06:46:59;19.90;42.70
37910;DHT22;23741;49.446;8.754;2023-06-05T06:49:01;19.90;42.70
37910;DHT22;23741;49.446;8.754;2023-06-05T06:51:03;19.90;42.50
37910;DHT22;23741;49.446;8.754;2023-06-05T06:53:05;20.00;42.20
37910;DHT22;23741;49.446;8.754;2023-06-05T06:55:07;20.10;42.50
37910;DHT22;23741;49.446;8.754;2023-06-05T06:57:09;20.10;42.60
37910;DHT22;23741;49.446;8.754;2023-06-05T06:59:14;20.10;42.80
37910;DHT22;23741;49.446;8.754;2023-06-05T07:01:15;20.10;42.30
37910;DHT22;23741;49.446;8.754;2023-06-05T07:03:17;20.20;42.40
37910;DHT22;23741;49.446;8.754;2023-06-05T07:05:19;20.20;42.60
37910;DHT22;23741;49.446;8.754;2023-06-05T07:07:21;20.20;42.60
37910;DHT22;23741;49.446;8.754;2023-06-05T07:09:23;20.30;42.50
37910;DHT22;23741;49.446;8.754;2023-06-05T07:11:25;20.30;42.50
37910;DHT22;23741;49.446;8.754;2023-06-05T07:13:27;20.40;42.40
37910;DHT22;23741;49.446;8.754;2023-06-05T07:15:29;20.40;42.30
37910;DHT22;23741;49.446;8.754;2023-06-05T07:17:31;20.40;42.10
37910;DHT22;23741;49.446;8.754;2023-06-05T07:19:33;20.50;42.10
37910;DHT22;23741;49.446;8.754;2023-06-05T07:21:35;20.50;42.10
37910;DHT22;23741;49.446;8.754;2023-06-05T07:23:39;20.60;41.90
37910;DHT22;23741;49.446;8.754;2023-06-05T07:25:41;20.60;41.80
37910;DHT22;23741;49.446;8.754;2023-06-05T07:27:43;20.70;41.90
37910;DHT22;23741;49.446;8.754;2023-06-05T07:29:46;20.70;41.70
37910;DHT22;23741;49.446;8.754;2023-06-05T07:31:52;20.70;42.00
37910;DHT22;23741;49.446;8.754;2023-06-05T07:33:54;20.70;41.70
37910;DHT22;23741;49.446;8.754;2023-06-05T07:35:55;20.90;41.70
37910;DHT22;23741;49.446;8.754;2023-06-05T07:37:57;20.90;41.70
37910;DHT22;23741;49.446;8.754;2023-06-05T07:39:59;20.90;41.70
37910;DHT22;23741;49.446;8.754;2023-06-05T07:42:01;21.00;41.70
37910;DHT22;23741;49.446;8.754;2023-06-05T07:44:02;21.00;41.50
37910;DHT22;23741;49.446;8.754;2023-06-05T07:46:04;21.10;41.60
37910;DHT22;23741;49.446;8.754;2023-06-05T07:48:06;21.10;41.60
37910;DHT22;23741;49.446;8.754;2023-06-05T07:50:08;21.10;41.50
37910;DHT22;23741;49.446;8.754;2023-06-05T07:52:10;21.20;41.60
37910;DHT22;23741;49.446;8.754;2023-06-05T07:54:12;21.20;41.50
37910;DHT22;23741;49.446;8.754;2023-06-05T07:56:14;21.30;41.40
37910;DHT22;23741;49.446;8.754;2023-06-05T07:58:18;21.30;41.40
37910;DHT22;23741;49.446;8.754;2023-06-05T08:00:20;21.40;41.50
37910;DHT22;23741;49.446;8.754;2023-06-05T08:02:22;21.40;41.40
37910;DHT22;23741;49.446;8.754;2023-06-05T08:04:25;21.50;41.50
37910;DHT22;23741;49.446;8.754;2023-06-05T08:06:29;21.50;41.50
37910;DHT22;23741;49.446;8.754;2023-06-05T08:08:31;21.60;41.50
37910;DHT22;23741;49.446;8.754;2023-06-05T08:10:33;21.60;41.50
37910;DHT22;23741;49.446;8.754;2023-06-05T08:12:35;21.70;41.60
37910;DHT22;23741;49.446;8.754;2023-06-05T08:14:37;21.70;41.50
37910;DHT22;23741;49.446;8.754;2023-06-05T08:16:39;21.80;41.50
37910;DHT22;23741;49.446;8.754;2023-06-05T08:18:41;21.80;41.60
37910;DHT22;23741;49.446;8.754;2023-06-05T08:20:43;21.90;41.60
37910;DHT22;23741;49.446;8.754;2023-06-05T08:22:44;21.90;41.60
37910;DHT22;23741;49.446;8.754;2023-06-05T08:24:46;22.00;41.60
37910;DHT22;23741;49.446;8.754;2023-06-05T08:26:50;22.10;41.70
37910;DHT22;23741;49.446;8.754;2023-06-05T08:28:51;22.10;41.50
37910;DHT22;23741;49.446;8.754;2023-06-05T08:30:53;22.10;42.30
37910;DHT22;23741;49.446;8.754;2023-06-05T08:32:55;22.20;41.90
37910;DHT22;23741;49.446;8.754;2023-06-05T08:34:57;22.20;41.80
37910;DHT22;23741;49.446;8.754;2023-06-05T08:36:59;22.30;41.70
37910;DHT22;23741;49.446;8.754;2023-06-05T08:39:01;22.30;41.70
37910;DHT22;23741;49.446;8.754;2023-06-05T08:41:03;22.40;41.80
37910;DHT22;23741;49.446;8.754;2023-06-05T08:43:12;22.40;41.60
37910;DHT22;23741;49.446;8.754;2023-06-05T08:45:14;22.50;41.70
37910;DHT22;23741;49.446;8.754;2023-06-05T08:47:16;22.50;42.40
37910;DHT22;23741;49.446;8.754;2023-06-05T08:49:18;22.60;42.20
37910;DHT22;23741;49.446;8.754;2023-06-05T08:51:23;22.70;42.00
37910;DHT22;23741;49.446;8.754;2023-06-05T08:53:25;22.70;42.00
37910;DHT22;23741;49.446;8.754;2023-06-05T08:55:30;22.80;41.80
37910;DHT22;23741;49.446;8.754;2023-06-05T08:57:33;22.80;42.00
37910;DHT22;23741;49.446;8.754;2023-06-05T08:59:37;22.90;42.00
37910;DHT22;23741;49.446;8.754;2023-06-05T09:01:40;22.90;42.00
37910;DHT22;23741;49.446;8.754;2023-06-05T09:03:42;23.00;42.50
37910;DHT22;23741;49.446;8.754;2023-06-05T09:05:44;23.00;42.00
37910;DHT22;23741;49.446;8.754;2023-06-05T09:07:45;23.10;41.70
37910;DHT22;23741;49.446;8.754;2023-06-05T09:09:47;23.10;41.90
37910;DHT22;23741;49.446;8.754;2023-06-05T09:12:01;23.20;42.40
37910;DHT22;23741;49.446;8.754;2023-06-05T09:14:03;23.20;42.50
37910;DHT22;23741;49.446;8.754;2023-06-05T09:16:05;23.30;42.10
37910;DHT22;23741;49.446;8.754;2023-06-05T09:18:11;23.40;42.20
37910;DHT22;23741;49.446;8.754;2023-06-05T09:20:23;23.40;42.00
37910;DHT22;23741;49.446;8.754;2023-06-05T09:22:33;23.40;41.90
37910;DHT22;23741;49.446;8.754;2023-06-05T09:24:38;23.50;42.00
37910;DHT22;23741;49.446;8.754;2023-06-05T09:28:56;23.70;41.80
37910;DHT22;23741;49.446;8.754;2023-06-05T09:31:00;23.80;41.70
37910;DHT22;23741;49.446;8.754;2023-06-05T09:33:11;23.80;41.70
37910;DHT22;23741;49.446;8.754;2023-06-05T09:35:16;23.90;41.80
37910;DHT22;23741;49.446;8.754;2023-06-05T09:37:18;23.90;41.70
37910;DHT22;23741;49.446;8.754;2023-06-05T09:39:20;24.00;41.60
37910;DHT22;23741;49.446;8.754;2023-06-05T09:41:22;24.00;41.40
37910;DHT22;23741;49.446;8.754;2023-06-05T09:43:25;24.10;41.50
37910;DHT22;23741;49.446;8.754;2023-06-05T09:45:40;24.20;41.60
37910;DHT22;23741;49.446;8.754;2023-06-05T09:47:42;24.30;41.60
37910;DHT22;23741;49.446;8.754;2023-06-05T09:49:55;24.30;41.40
37910;DHT22;23741;49.446;8.754;2023-06-05T09:51:58;24.40;41.20
37910;DHT22;23741;49.446;8.754;2023-06-05T09:54:01;24.40;41.00
37910;DHT22;23741;49.446;8.754;2023-06-05T09:56:03;24.50;40.90
37910;DHT22;23741;49.446;8.754;2023-06-05T09:58:06;24.60;40.90
37910;DHT22;23741;49.446;8.754;2023-06-05T10:00:13;24.60;40.80
37910;DHT22;23741;49.446;8.754;2023-06-05T10:02:21;24.70;40.50
37910;DHT22;23741;49.446;8.754;2023-06-05T10:04:26;24.70;40.40
37910;DHT22;23741;49.446;8.754;2023-06-05T10:06:29;24.70;40.40
37910;DHT22;23741;49.446;8.754;2023-06-05T10:08:33;24.80;40.30
37910;DHT22;23741;49.446;8.754;2023-06-05T10:10:36;24.80;40.30
37910;DHT22;23741;49.446;8.754;2023-06-05T10:12:38;25.00;40.20
37910;DHT22;23741;49.446;8.754;2023-06-05T10:14:41;24.90;40.00
37910;DHT22;23741;49.446;8.754;2023-06-05T10:16:45;25.00;39.70
37910;DHT22;23741;49.446;8.754;2023-06-05T10:18:49;25.00;39.50
37910;DHT22;23741;49.446;8.754;2023-06-05T10:20:51;25.00;39.50
37910;DHT22;23741;49.446;8.754;2023-06-05T10:22:54;25.10;39.50
37910;DHT22;23741;49.446;8.754;2023-06-05T10:24:57;25.10;39.60
37910;DHT22;23741;49.446;8.754;2023-06-05T10:29:16;25.20;39.70
37910;DHT22;23741;49.446;8.754;2023-06-05T10:31:26;25.20;39.70
37910;DHT22;23741;49.446;8.754;2023-06-05T10:33:36;25.30;39.50
37910;DHT22;23741;49.446;8.754;2023-06-05T10:39:45;25.40;39.10
37910;DHT22;23741;49.446;8.754;2023-06-05T10:41:49;25.40;39.10
37910;DHT22;23741;49.446;8.754;2023-06-05T10:43:52;25.40;39.10
37910;DHT22;23741;49.446;8.754;2023-06-05T10:45:54;25.50;38.40
37910;DHT22;23741;49.446;8.754;2023-06-05T10:48:09;25.50;38.60
37910;DHT22;23741;49.446;8.754;2023-06-05T10:50:20;25.50;38.80
37910;DHT22;23741;49.446;8.754;2023-06-05T10:52:34;25.60;37.90
37910;DHT22;23741;49.446;8.754;2023-06-05T10:59:12;25.90;38.80
37910;DHT22;23741;49.446;8.754;2023-06-05T11:03:20;26.10;38.80
37910;DHT22;23741;49.446;8.754;2023-06-05T11:05:42;26.20;39.10
37910;DHT22;23741;49.446;8.754;2023-06-05T11:08:13;26.30;38.60
37910;DHT22;23741;49.446;8.754;2023-06-05T11:12:22;26.40;38.30
37910;DHT22;23741;49.446;8.754;2023-06-05T11:14:24;26.50;38.30
37910;DHT22;23741;49.446;8.754;2023-06-05T11:16:30;26.50;38.10
37910;DHT22;23741;49.446;8.754;2023-06-05T11:18:32;26.50;37.20
37910;DHT22;23741;49.446;8.754;2023-06-05T11:29:34;26.70;38.00
37910;DHT22;23741;49.446;8.754;2023-06-05T11:31:36;26.70;38.00
37910;DHT22;23741;49.446;8.754;2023-06-05T11:33:38;26.80;38.00
37910;DHT22;23741;49.446;8.754;2023-06-05T11:35:47;26.90;38.40
37910;DHT22;23741;49.446;8.754;2023-06-05T11:37:51;27.00;37.80
37910;DHT22;23741;49.446;8.754;2023-06-05T11:40:08;27.20;37.10
37910;DHT22;23741;49.446;8.754;2023-06-05T11:42:11;27.20;37.20
37910;DHT22;23741;49.446;8.754;2023-06-05T11:44:13;27.30;37.70
37910;DHT22;23741;49.446;8.754;2023-06-05T11:46:15;27.50;37.80
37910;DHT22;23741;49.446;8.754;2023-06-05T11:48:17;27.60;37.70
37910;DHT22;23741;49.446;8.754;2023-06-05T11:50:19;27.70;38.10
37910;DHT22;23741;49.446;8.754;2023-06-05T11:52:23;27.80;37.80
37910;DHT22;23741;49.446;8.754;2023-06-05T11:56:27;28.10;37.90
37910;DHT22;23741;49.446;8.754;2023-06-05T11:58:30;28.20;38.00
37910;DHT22;23741;49.446;8.754;2023-06-05T12:00:32;28.40;37.50
37910;DHT22;23741;49.446;8.754;2023-06-05T12:02:33;28.50;37.70
37910;DHT22;23741;49.446;8.754;2023-06-05T12:04:38;28.70;37.60
37910;DHT22;23741;49.446;8.754;2023-06-05T12:06:46;28.80;36.40
37910;DHT22;23741;49.446;8.754;2023-06-05T12:08:52;28.90;35.30
37910;DHT22;23741;49.446;8.754;2023-06-05T12:10:54;29.10;35.40
37910;DHT22;23741;49.446;8.754;2023-06-05T12:12:58;29.20;35.70
37910;DHT22;23741;49.446;8.754;2023-06-05T12:15:21;29.30;32.30
37910;DHT22;23741;49.446;8.754;2023-06-05T12:17:22;29.40;32.60
37910;DHT22;23741;49.446;8.754;2023-06-05T12:19:26;29.60;34.70
37910;DHT22;23741;49.446;8.754;2023-06-05T12:21:28;29.70;35.40
37910;DHT22;23741;49.446;8.754;2023-06-05T12:23:31;29.80;35.50
37910;DHT22;23741;49.446;8.754;2023-06-05T12:25:34;29.90;34.50
37910;DHT22;23741;49.446;8.754;2023-06-05T12:27:36;30.00;34.70
37910;DHT22;23741;49.446;8.754;2023-06-05T12:29:38;30.10;35.60
37910;DHT22;23741;49.446;8.754;2023-06-05T12:31:41;30.20;35.70
37910;DHT22;23741;49.446;8.754;2023-06-05T12:33:47;30.30;35.10
37910;DHT22;23741;49.446;8.754;2023-06-05T12:36:02;30.40;35.40
37910;DHT22;23741;49.446;8.754;2023-06-05T12:38:04;30.50;34.70
37910;DHT22;23741;49.446;8.754;2023-06-05T12:40:06;30.60;35.20
37910;DHT22;23741;49.446;8.754;2023-06-05T12:42:46;30.70;35.40
37910;DHT22;23741;49.446;8.754;2023-06-05T12:44:59;30.80;35.10
37910;DHT22;23741;49.446;8.754;2023-06-05T12:47:04;30.90;35.60
37910;DHT22;23741;49.446;8.754;2023-06-05T12:49:20;31.00;34.80
37910;DHT22;23741;49.446;8.754;2023-06-05T12:51:36;31.10;34.90
37910;DHT22;23741;49.446;8.754;2023-06-05T12:53:42;31.10;34.20
37910;DHT22;23741;49.446;8.754;2023-06-05T12:55:47;31.20;33.70
37910;DHT22;23741;49.446;8.754;2023-06-05T12:57:49;31.20;33.10
37910;DHT22;23741;49.446;8.754;2023-06-05T12:59:57;31.10;31.30
37910;DHT22;23741;49.446;8.754;2023-06-05T13:02:07;31.20;32.00
37910;DHT22;23741;49.446;8.754;2023-06-05T13:04:13;31.30;30.90
37910;DHT22;23741;49.446;8.754;2023-06-05T13:06:18;31.30;31.90
37910;DHT22;23741;49.446;8.754;2023-06-05T13:08:24;31.30;32.80
37910;DHT22;23741;49.446;8.754;2023-06-05T13:10:34;31.30;32.30
37910;DHT22;23741;49.446;8.754;2023-06-05T13:12:39;31.30;32.70
37910;DHT22;23741;49.446;8.754;2023-06-05T13:14:52;31.30;32.60
37910;DHT22;23741;49.446;8.754;2023-06-05T13:16:55;31.20;33.40
37910;DHT22;23741;49.446;8.754;2023-06-05T13:19:03;31.30;30.90
37910;DHT22;23741;49.446;8.754;2023-06-05T13:21:10;31.40;31.10
37910;DHT22;23741;49.446;8.754;2023-06-05T13:23:13;31.40;31.70
37910;DHT22;23741;49.446;8.754;2023-06-05T13:25:16;31.40;30.80
37910;DHT22;23741;49.446;8.754;2023-06-05T13:27:18;31.40;30.80
37910;DHT22;23741;49.446;8.754;2023-06-05T13:29:24;31.50;31.10
37910;DHT22;23741;49.446;8.754;2023-06-05T13:31:35;31.50;31.90